sensor_id;sensor_type;location;lat;lon;timestamp;pressure;altitude;pressure_sealevel;temperature;humidity
76687;BME280;65615;47.378;19.344;2024-01-15T05:25:44;98794.88;;;-3.52;100.00
76687;BME280;65615;47.378;19.344;2024-01-15T05:29:47;98794.88;;;-3.52;100.00
76687;BME280;65615;47.378;19.344;2024-01-15T05:33:50;98799.31;;;-4.16;100.00
76687;BME280;65615;47.378;19.344;2024-01-15T05:37:53;98783.34;;;-4.21;100.00
76687;BME280;65615;47.378;19.344;2024-01-15T05:41:56;98791.34;;;-4.26;100.00
76687;BME280;65615;47.378;19.344;2024-01-15T05:45:59;98792.41;;;-4.16;100.00
76687;BME280;65615;47.378;19.344;2024-01-15T05:50:02;98793.75;;;-4.23;100.00
76687;BME280;65615;47.378;19.344;2024-01-15T05:54:06;98794.66;;;-4.24;100.00
76687;BME280;65615;47.378;19.344;2024-01-15T05:58:09;98794.88;;;-4.27;100.00
76687;BME280;65615;47.378;19.344;2024-01-15T06:02:12;98796.84;;;-4.05;100.00
76687;BME280;65615;47.378;19.344;2024-01-15T06:06:15;98779.31;;;-4.25;100.00
76687;BME280;65615;47.378;19.344;2024-01-15T06:10:18;98784.25;;;-4.10;100.00
76687;BME280;65615;47.378;19.344;2024-01-15T06:14:21;98789.91;;;-4.30;100.00
76687;BME280;65615;47.378;19.344;2024-01-15T06:18:24;98797.53;;;-4.28;100.00
76687;BME280;65615;47.378;19.344;2024-01-15T06:22:27;98803.53;;;-4.28;100.00
76687;BME280;65615;47.378;19.344;2024-01-15T06:26:30;98797.84;;;-4.33;100.00
76687;BME280;65615;47.378;19.344;2024-01-15T06:30:33;98807.84;;;-4.41;100.00
76687;BME280;65615;47.378;19.344;2024-01-15T06:34:36;98798.56;;;-4.44;100.00
76687;BME280;65615;47.378;19.344;2024-01-15T06:38:40;98789.09;;;-4.43;100.00
76687;BME280;65615;47.378;19.344;2024-01-15T06:42:44;98795.13;;;-4.44;100.00
76687;BME280;65615;47.378;19.344;2024-01-15T06:46:47;98800.44;;;-4.20;100.00
76687;BME280;65615;47.378;19.344;2024-01-15T06:50:50;98801.69;;;-4.13;100.00
76687;BME280;65615;47.378;19.344;2024-01-15T06:54:54;98806.34;;;-4.06;100.00
76687;BME280;65615;47.378;19.344;2024-01-15T06:58:57;98807.69;;;-3.88;100.00
76687;BME280;65615;47.378;19.344;2024-01-15T07:03:00;98804.78;;;-3.71;100.00
76687;BME280;65615;47.378;19.344;2024-01-15T07:07:03;98807.06;;;-3.66;100.00
76687;BME280;65615;47.378;19.344;2024-01-15T07:11:06;98809.69;;;-3.42;100.00
76687;BME280;65615;47.378;19.344;2024-01-15T07:15:09;98819.09;;;-3.29;100.00
76687;BME280;65615;47.378;19.344;2024-01-15T07:19:12;98824.31;;;-3.05;100.00
76687;BME280;65615;47.378;19.344;2024-01-15T07:23:15;98835.41;;;-2.92;100.00
76687;BME280;65615;47.378;19.344;2024-01-15T07:27:19;98823.00;;;-2.87;100.00
76687;BME280;65615;47.378;19.344;2024-01-15T07:31:22;98818.69;;;-2.52;100.00
76687;BME280;65615;47.378;19.344;2024-01-15T07:35:25;98827.25;;;-2.28;100.00
76687;BME280;65615;47.378;19.344;2024-01-15T07:39:29;98828.22;;;-2.18;100.00
76687;BME280;65615;47.378;19.344;2024-01-15T07:43:33;98825.25;;;-2.01;100.00
76687;BME280;65615;47.378;19.344;2024-01-15T07:47:36;98807.78;;;-2.21;100.00
76687;BME280;65615;47.378;19.344;2024-01-15T07:51:40;98826.59;;;-2.19;100.00
76687;BME280;65615;47.378;19.344;2024-01-15T07:55:43;98817.69;;;-2.15;100.00
76687;BME280;65615;47.378;19.344;2024-01-15T07:59:46;98812.06;;;-2.09;100.00
76687;BME280;65615;47.378;19.344;2024-01-15T08:03:48;98831.72;;;-1.84;100.00
76687;BME280;65615;47.378;19.344;2024-01-15T08:07:52;98838.94;;;-1.77;100.00
76687;BME280;65615;47.378;19.344;2024-01-15T08:11:59;98832.75;;;-1.98;100.00
76687;BME280;65615;47.378;19.344;2024-01-15T08:16:03;98835.13;;;-1.95;100.00
76687;BME280;65615;47.378;19.344;2024-01-15T08:20:07;98836.09;;;-1.85;100.00
76687;BME280;65615;47.378;19.344;2024-01-15T08:24:11;98839.16;;;-1.80;100.00
76687;BME280;65615;47.378;19.344;2024-01-15T08:28:14;98850.72;;;-1.06;100.00
76687;BME280;65615;47.378;19.344;2024-01-15T08:32:17;98848.47;;;-0.46;100.00
76687;BME280;65615;47.378;19.344;2024-01-15T08:36:22;98848.28;;;-0.02;100.00
76687;BME280;65615;47.378;19.344;2024-01-15T08:40:27;98849.44;;;0.26;100.00
76687;BME280;65615;47.378;19.344;2024-01-15T08:44:30;98863.75;;;0.41;100.00
76687;BME280;65615;47.378;19.344;2024-01-15T08:48:35;98864.69;;;0.61;100.00
76687;BME280;65615;47.378;19.344;2024-01-15T08:52:39;98871.81;;;0.99;100.00
76687;BME280;65615;47.378;19.344;2024-01-15T08:57:13;98857.56;;;1.42;100.00
76687;BME280;65615;47.378;19.344;2024-01-15T09:01:17;98864.47;;;2.01;100.00
76687;BME280;65615;47.378;19.344;2024-01-15T09:05:23;98870.19;;;2.33;100.00
76687;BME280;65615;47.378;19.344;2024-01-15T09:09:26;98872.41;;;2.28;100.00
76687;BME280;65615;47.378;19.344;2024-01-15T09:13:30;98869.88;;;2.55;100.00
76687;BME280;65615;47.378;19.344;2024-01-15T09:17:34;98859.22;;;2.48;100.00
76687;BME280;65615;47.378;19.344;2024-01-15T09:21:38;98866.97;;;3.04;100.00
76687;BME280;65615;47.378;19.344;2024-01-15T09:25:41;98858.63;;;3.28;100.00
76687;BME280;65615;47.378;19.344;2024-01-15T09:29:44;98856.22;;;3.62;100.00
76687;BME280;65615;47.378;19.344;2024-01-15T09:33:49;98842.66;;;4.37;100.00
76687;BME280;65615;47.378;19.344;2024-01-15T09:37:55;98845.19;;;5.05;100.00
76687;BME280;65615;47.378;19.344;2024-01-15T09:41:58;98825.47;;;5.35;97.43
76687;BME280;65615;47.378;19.344;2024-01-15T09:46:02;98826.94;;;5.30;96.02
76687;BME280;65615;47.378;19.344;2024-01-15T09:50:06;98822.19;;;6.39;91.03
76687;BME280;65615;47.378;19.344;2024-01-15T09:54:09;98824.59;;;7.12;78.09
76687;BME280;65615;47.378;19.344;2024-01-15T09:58:12;98818.59;;;7.87;71.71
76687;BME280;65615;47.378;19.344;2024-01-15T10:02:15;98799.66;;;6.69;70.99
76687;BME280;65615;47.378;19.344;2024-01-15T10:06:21;98789.56;;;7.81;65.40
76687;BME280;65615;47.378;19.344;2024-01-15T10:10:25;98791.50;;;8.46;64.76
76687;BME280;65615;47.378;19.344;2024-01-15T10:14:28;98787.78;;;8.70;58.39
76687;BME280;65615;47.378;19.344;2024-01-15T10:18:32;98783.66;;;8.01;58.33
76687;BME280;65615;47.378;19.344;2024-01-15T10:22:38;98774.72;;;7.88;59.21
76687;BME280;65615;47.378;19.344;2024-01-15T10:26:42;98773.00;;;8.69;55.38
76687;BME280;65615;47.378;19.344;2024-01-15T10:30:46;98765.00;;;8.33;55.21
76687;BME280;65615;47.378;19.344;2024-01-15T10:34:54;98760.94;;;9.25;52.12
76687;BME280;65615;47.378;19.344;2024-01-15T10:38:59;98759.69;;;9.21;51.76
76687;BME280;65615;47.378;19.344;2024-01-15T10:43:04;98755.78;;;10.84;49.22
76687;BME280;65615;47.378;19.344;2024-01-15T10:47:12;98762.03;;;11.71;44.12
76687;BME280;65615;47.378;19.344;2024-01-15T10:51:15;98754.09;;;11.71;42.40
76687;BME280;65615;47.378;19.344;2024-01-15T10:55:34;98747.50;;;12.85;39.76
76687;BME280;65615;47.378;19.344;2024-01-15T10:59:40;98746.81;;;12.00;41.37
76687;BME280;65615;47.378;19.344;2024-01-15T11:03:43;98724.59;;;12.40;41.29
76687;BME280;65615;47.378;19.344;2024-01-15T11:07:46;98721.75;;;13.49;38.99
76687;BME280;65615;47.378;19.344;2024-01-15T11:12:06;98719.75;;;12.94;37.72
76687;BME280;65615;47.378;19.344;2024-01-15T11:16:11;98716.16;;;12.69;37.99
76687;BME280;65615;47.378;19.344;2024-01-15T11:20:21;98724.19;;;12.23;40.25
76687;BME280;65615;47.378;19.344;2024-01-15T11:24:44;98731.94;;;12.05;40.69
76687;BME280;65615;47.378;19.344;2024-01-15T11:28:47;98725.16;;;11.63;41.22
76687;BME280;65615;47.378;19.344;2024-01-15T11:32:52;98724.19;;;11.71;41.58
76687;BME280;65615;47.378;19.344;2024-01-15T11:37:02;98713.19;;;11.00;42.97
76687;BME280;65615;47.378;19.344;2024-01-15T11:41:15;98703.75;;;12.63;40.25
76687;BME280;65615;47.378;19.344;2024-01-15T11:45:48;98691.84;;;11.75;39.94
76687;BME280;65615;47.378;19.344;2024-01-15T11:50:06;98689.81;;;12.04;39.42
76687;BME280;65615;47.378;19.344;2024-01-15T11:54:12;98692.56;;;13.49;35.83
76687;BME280;65615;47.378;19.344;2024-01-15T11:58:17;98684.47;;;13.00;36.82
76687;BME280;65615;47.378;19.344;2024-01-15T12:02:30;98684.34;;;12.69;38.06
76687;BME280;65615;47.378;19.344;2024-01-15T12:06:40;98682.81;;;13.43;36.89
76687;BME280;65615;47.378;19.344;2024-01-15T12:10:47;98680.34;;;13.48;37.24
76687;BME280;65615;47.378;19.344;2024-01-15T12:14:50;98675.59;;;13.19;36.77
76687;BME280;65615;47.378;19.344;2024-01-15T12:18:53;98667.37;;;12.26;38.11
76687;BME280;65615;47.378;19.344;2024-01-15T12:22:57;98662.28;;;12.88;37.70
76687;BME280;65615;47.378;19.344;2024-01-15T12:27:07;98661.44;;;12.94;37.30
76687;BME280;65615;47.378;19.344;2024-01-15T12:31:15;98668.91;;;13.48;36.57
76687;BME280;65615;47.378;19.344;2024-01-15T12:35:18;98653.31;;;14.50;34.60
76687;BME280;65615;47.378;19.344;2024-01-15T12:39:22;98650.19;;;14.71;33.87
76687;BME280;65615;47.378;19.344;2024-01-15T12:43:25;98643.13;;;12.86;36.49
76687;BME280;65615;47.378;19.344;2024-01-15T12:47:28;98643.38;;;14.03;35.25
76687;BME280;65615;47.378;19.344;2024-01-15T12:51:34;98638.34;;;13.39;36.83
76687;BME280;65615;47.378;19.344;2024-01-15T12:55:37;98637.97;;;13.35;35.81
76687;BME280;65615;47.378;19.344;2024-01-15T12:59:41;98636.53;;;12.57;36.37
76687;BME280;65615;47.378;19.344;2024-01-15T13:03:44;98644.97;;;12.28;37.10
76687;BME280;65615;47.378;19.344;2024-01-15T13:07:48;98644.47;;;13.39;36.45
76687;BME280;65615;47.378;19.344;2024-01-15T13:11:57;98637.91;;;11.76;38.23
76687;BME280;65615;47.378;19.344;2024-01-15T13:16:05;98635.25;;;11.63;38.73
76687;BME280;65615;47.378;19.344;2024-01-15T13:20:09;98629.44;;;12.45;37.19
76687;BME280;65615;47.378;19.344;2024-01-15T13:24:14;98629.47;;;12.38;36.79
76687;BME280;65615;47.378;19.344;2024-01-15T13:28:17;98633.56;;;13.23;35.29
76687;BME280;65615;47.378;19.344;2024-01-15T13:32:27;98647.75;;;12.97;36.54
76687;BME280;65615;47.378;19.344;2024-01-15T13:36:31;98642.41;;;14.40;34.47
76687;BME280;65615;47.378;19.344;2024-01-15T13:40:34;98642.97;;;14.60;33.96
76687;BME280;65615;47.378;19.344;2024-01-15T13:44:37;98648.97;;;15.63;32.63
76687;BME280;65615;47.378;19.344;2024-01-15T13:48:40;98642.94;;;15.26;32.40
76687;BME280;65615;47.378;19.344;2024-01-15T13:52:43;98653.66;;;15.49;32.20
76687;BME280;65615;47.378;19.344;2024-01-15T13:56:46;98640.50;;;13.80;34.32
76687;BME280;65615;47.378;19.344;2024-01-15T14:00:50;98641.81;;;13.02;35.55
76687;BME280;65615;47.378;19.344;2024-01-15T14:04:53;98648.94;;;10.87;39.50
76687;BME280;65615;47.378;19.344;2024-01-15T14:08:56;98641.56;;;9.03;44.37
76687;BME280;65615;47.378;19.344;2024-01-15T14:12:59;98628.84;;;7.69;48.15
76687;BME280;65615;47.378;19.344;2024-01-15T14:17:03;98626.84;;;7.71;49.28
76687;BME280;65615;47.378;19.344;2024-01-15T14:21:06;98625.56;;;6.54;54.07
76687;BME280;65615;47.378;19.344;2024-01-15T14:25:09;98629.63;;;6.64;55.06
76687;BME280;65615;47.378;19.344;2024-01-15T14:29:12;98629.31;;;6.59;56.72
76687;BME280;65615;47.378;19.344;2024-01-15T14:33:15;98622.81;;;6.17;60.03
76687;BME280;65615;47.378;19.344;2024-01-15T14:37:19;98619.13;;;5.79;59.61
76687;BME280;65615;47.378;19.344;2024-01-15T14:41:23;98617.53;;;5.30;62.33
76687;BME280;65615;47.378;19.344;2024-01-15T14:45:26;98622.41;;;4.84;65.23
76687;BME280;65615;47.378;19.344;2024-01-15T14:49:29;98615.22;;;4.86;65.80
76687;BME280;65615;47.378;19.344;2024-01-15T14:53:33;98619.34;;;4.47;68.35
76687;BME280;65615;47.378;19.344;2024-01-15T14:57:36;98624.19;;;4.26;70.64
76687;BME280;65615;47.378;19.344;2024-01-15T15:01:40;98632.59;;;4.04;72.16
76687;BME280;65615;47.378;19.344;2024-01-15T15:05:44;98637.50;;;4.07;73.54
76687;BME280;65615;47.378;19.344;2024-01-15T15:09:48;98643.34;;;4.01;73.70
76687;BME280;65615;47.378;19.344;2024-01-15T15:13:53;98632.25;;;4.07;73.84
76687;BME280;65615;47.378;19.344;2024-01-15T15:17:56;98636.22;;;4.11;73.54
76687;BME280;65615;47.378;19.344;2024-01-15T15:21:59;98640.38;;;3.96;75.86
76687;BME280;65615;47.378;19.344;2024-01-15T15:26:02;98653.72;;;3.85;77.24
76687;BME280;65615;47.378;19.344;2024-01-15T15:30:09;98638.34;;;3.82;77.61
76687;BME280;65615;47.378;19.344;2024-01-15T15:34:12;98641.94;;;3.81;79.34
76687;BME280;65615;47.378;19.344;2024-01-15T15:38:15;98635.06;;;3.80;80.58
76687;BME280;65615;47.378;19.344;2024-01-15T15:42:18;98632.41;;;3.72;80.36
76687;BME280;65615;47.378;19.344;2024-01-15T15:46:21;98627.50;;;3.69;79.57
76687;BME280;65615;47.378;19.344;2024-01-15T15:50:24;98630.06;;;3.61;81.00
76687;BME280;65615;47.378;19.344;2024-01-15T15:54:27;98663.19;;;3.60;79.73
76687;BME280;65615;47.378;19.344;2024-01-15T15:58:31;98669.09;;;3.44;77.33
76687;BME280;65615;47.378;19.344;2024-01-15T16:02:33;98674.34;;;3.96;70.20
76687;BME280;65615;47.378;19.344;2024-01-15T16:06:37;98683.09;;;3.87;70.01
76687;BME280;65615;47.378;19.344;2024-01-15T16:10:40;98674.63;;;3.85;69.53
76687;BME280;65615;47.378;19.344;2024-01-15T16:14:44;98681.63;;;3.59;72.74
76687;BME280;65615;47.378;19.344;2024-01-15T16:18:46;98691.75;;;3.62;70.94
